sensor_id;sensor_type;location;lat;lon;timestamp;P1;durP1;ratioP1;P2;durP2;ratioP2
14187;SDS011;7175;51.978;5.330;2023-05-19T00:00:58;23.10;;;21.40;;
14187;SDS011;7175;51.978;5.330;2023-05-19T00:03:27;23.10;;;21.40;;
14187;SDS011;7175;51.978;5.330;2023-05-19T00:05:57;23.80;;;22.10;;
14187;SDS011;7175;51.978;5.330;2023-05-19T00:08:30;23.43;;;21.73;;
14187;SDS011;7175;51.978;5.330;2023-05-19T00:10:59;24.07;;;22.30;;
14187;SDS011;7175;51.978;5.330;2023-05-19T00:13:28;23.77;;;22.07;;
14187;SDS011;7175;51.978;5.330;2023-05-19T00:15:56;23.53;;;21.83;;
14187;SDS011;7175;51.978;5.330;2023-05-19T00:18:24;24.43;;;22.63;;
14187;SDS011;7175;51.978;5.330;2023-05-19T00:20:55;24.53;;;22.83;;
14187;SDS011;7175;51.978;5.330;2023-05-19T00:23:23;25.40;;;23.60;;
14187;SDS011;7175;51.978;5.330;2023-05-19T00:25:52;25.83;;;24.03;;
14187;SDS011;7175;51.978;5.330;2023-05-19T00:28:20;26.50;;;24.60;;
14187;SDS011;7175;51.978;5.330;2023-05-19T00:30:49;27.90;;;26.00;;
14187;SDS011;7175;51.978;5.330;2023-05-19T00:33:17;28.00;;;26.10;;
14187;SDS011;7175;51.978;5.330;2023-05-19T00:35:45;26.90;;;25.00;;
14187;SDS011;7175;51.978;5.330;2023-05-19T00:38:13;26.60;;;24.70;;
14187;SDS011;7175;51.978;5.330;2023-05-19T00:40:41;28.90;;;26.90;;
14187;SDS011;7175;51.978;5.330;2023-05-19T00:43:11;27.47;;;25.57;;
14187;SDS011;7175;51.978;5.330;2023-05-19T00:45:39;29.07;;;27.07;;
14187;SDS011;7175;51.978;5.330;2023-05-19T00:48:07;27.70;;;25.80;;
14187;SDS011;7175;51.978;5.330;2023-05-19T00:50:35;28.70;;;26.70;;
14187;SDS011;7175;51.978;5.330;2023-05-19T00:53:03;29.87;;;27.87;;
14187;SDS011;7175;51.978;5.330;2023-05-19T00:55:31;31.63;;;29.53;;
14187;SDS011;7175;51.978;5.330;2023-05-19T00:58:01;30.20;;;28.20;;
14187;SDS011;7175;51.978;5.330;2023-05-19T01:00:32;30.33;;;28.33;;
14187;SDS011;7175;51.978;5.330;2023-05-19T01:03:02;32.07;;;29.97;;
14187;SDS011;7175;51.978;5.330;2023-05-19T01:05:37;31.80;;;29.70;;
14187;SDS011;7175;51.978;5.330;2023-05-19T01:08:06;32.97;;;30.87;;
14187;SDS011;7175;51.978;5.330;2023-05-19T01:10:35;33.73;;;31.53;;
14187;SDS011;7175;51.978;5.330;2023-05-19T01:13:03;34.57;;;32.37;;
14187;SDS011;7175;51.978;5.330;2023-05-19T01:15:35;34.60;;;32.40;;
14187;SDS011;7175;51.978;5.330;2023-05-19T01:18:11;35.20;;;33.00;;
14187;SDS011;7175;51.978;5.330;2023-05-19T01:20:45;34.87;;;32.67;;
14187;SDS011;7175;51.978;5.330;2023-05-19T01:23:27;36.33;;;34.03;;
14187;SDS011;7175;51.978;5.330;2023-05-19T01:26:08;37.43;;;35.13;;
14187;SDS011;7175;51.978;5.330;2023-05-19T01:28:55;37.93;;;35.53;;
14187;SDS011;7175;51.978;5.330;2023-05-19T01:31:36;39.00;;;36.50;;
14187;SDS011;7175;51.978;5.330;2023-05-19T01:34:05;39.63;;;37.13;;
14187;SDS011;7175;51.978;5.330;2023-05-19T01:36:34;38.10;;;35.67;;
14187;SDS011;7175;51.978;5.330;2023-05-19T01:39:03;43.00;;;40.30;;
14187;SDS011;7175;51.978;5.330;2023-05-19T01:41:32;42.23;;;39.63;;
14187;SDS011;7175;51.978;5.330;2023-05-19T01:44:01;43.97;;;41.27;;
14187;SDS011;7175;51.978;5.330;2023-05-19T01:46:29;42.80;;;40.10;;
14187;SDS011;7175;51.978;5.330;2023-05-19T01:48:58;47.00;;;44.20;;
14187;SDS011;7175;51.978;5.330;2023-05-19T01:51:27;45.60;;;42.80;;
14187;SDS011;7175;51.978;5.330;2023-05-19T01:53:55;46.37;;;43.57;;
14187;SDS011;7175;51.978;5.330;2023-05-19T01:56:25;50.70;;;47.70;;
14187;SDS011;7175;51.978;5.330;2023-05-19T01:59:07;49.03;;;46.13;;
14187;SDS011;7175;51.978;5.330;2023-05-19T02:01:46;49.43;;;46.50;;
14187;SDS011;7175;51.978;5.330;2023-05-19T02:04:22;54.50;;;51.30;;
14187;SDS011;7175;51.978;5.330;2023-05-19T02:06:58;54.80;;;51.60;;
14187;SDS011;7175;51.978;5.330;2023-05-19T02:09:33;60.47;;;56.97;;
14187;SDS011;7175;51.978;5.330;2023-05-19T02:12:08;60.23;;;56.73;;
14187;SDS011;7175;51.978;5.330;2023-05-19T02:14:44;61.20;;;57.70;;
14187;SDS011;7175;51.978;5.330;2023-05-19T02:17:16;61.57;;;58.07;;
14187;SDS011;7175;51.978;5.330;2023-05-19T02:19:48;61.53;;;58.00;;
14187;SDS011;7175;51.978;5.330;2023-05-19T02:22:16;60.53;;;57.03;;
14187;SDS011;7175;51.978;5.330;2023-05-19T02:24:44;62.57;;;58.97;;
14187;SDS011;7175;51.978;5.330;2023-05-19T02:27:13;69.40;;;65.40;;
14187;SDS011;7175;51.978;5.330;2023-05-19T02:29:41;68.57;;;64.70;;
14187;SDS011;7175;51.978;5.330;2023-05-19T02:32:09;69.63;;;65.73;;
14187;SDS011;7175;51.978;5.330;2023-05-19T02:34:38;67.10;;;63.30;;
14187;SDS011;7175;51.978;5.330;2023-05-19T02:37:08;64.93;;;61.23;;
14187;SDS011;7175;51.978;5.330;2023-05-19T02:39:37;70.10;;;66.13;;
14187;SDS011;7175;51.978;5.330;2023-05-19T02:42:05;74.30;;;70.13;;
14187;SDS011;7175;51.978;5.330;2023-05-19T02:44:33;72.00;;;67.90;;
14187;SDS011;7175;51.978;5.330;2023-05-19T02:47:02;77.17;;;72.87;;
14187;SDS011;7175;51.978;5.330;2023-05-19T02:49:30;79.77;;;75.37;;
14187;SDS011;7175;51.978;5.330;2023-05-19T02:52:01;78.93;;;74.63;;
14187;SDS011;7175;51.978;5.330;2023-05-19T02:54:30;83.00;;;78.43;;
14187;SDS011;7175;51.978;5.330;2023-05-19T02:56:59;83.07;;;78.57;;
14187;SDS011;7175;51.978;5.330;2023-05-19T02:59:28;84.77;;;80.13;;
14187;SDS011;7175;51.978;5.330;2023-05-19T03:01:58;85.80;;;81.10;;
14187;SDS011;7175;51.978;5.330;2023-05-19T03:04:27;82.37;;;77.80;;
14187;SDS011;7175;51.978;5.330;2023-05-19T03:06:55;82.13;;;77.53;;
14187;SDS011;7175;51.978;5.330;2023-05-19T03:09:24;79.53;;;74.93;;
14187;SDS011;7175;51.978;5.330;2023-05-19T03:11:53;85.87;;;80.97;;
14187;SDS011;7175;51.978;5.330;2023-05-19T03:14:21;88.10;;;83.10;;
14187;SDS011;7175;51.978;5.330;2023-05-19T03:16:50;93.70;;;88.50;;
14187;SDS011;7175;51.978;5.330;2023-05-19T03:19:18;94.07;;;88.77;;
14187;SDS011;7175;51.978;5.330;2023-05-19T03:21:46;97.87;;;92.47;;
14187;SDS011;7175;51.978;5.330;2023-05-19T03:24:14;100.77;;;95.17;;
14187;SDS011;7175;51.978;5.330;2023-05-19T03:26:43;101.60;;;96.00;;
14187;SDS011;7175;51.978;5.330;2023-05-19T03:29:13;99.80;;;94.20;;
14187;SDS011;7175;51.978;5.330;2023-05-19T03:31:41;104.53;;;98.83;;
14187;SDS011;7175;51.978;5.330;2023-05-19T03:34:09;104.67;;;99.07;;
14187;SDS011;7175;51.978;5.330;2023-05-19T03:36:37;107.97;;;102.27;;
14187;SDS011;7175;51.978;5.330;2023-05-19T03:39:05;106.67;;;100.97;;
14187;SDS011;7175;51.978;5.330;2023-05-19T03:41:34;107.67;;;101.87;;
14187;SDS011;7175;51.978;5.330;2023-05-19T03:44:02;109.13;;;103.23;;
14187;SDS011;7175;51.978;5.330;2023-05-19T03:46:32;108.83;;;102.83;;
14187;SDS011;7175;51.978;5.330;2023-05-19T03:49:00;110.53;;;104.43;;
14187;SDS011;7175;51.978;5.330;2023-05-19T03:51:28;113.97;;;107.67;;
14187;SDS011;7175;51.978;5.330;2023-05-19T03:53:56;114.13;;;107.73;;
14187;SDS011;7175;51.978;5.330;2023-05-19T03:56:24;113.77;;;107.27;;
14187;SDS011;7175;51.978;5.330;2023-05-19T03:58:53;114.23;;;107.60;;
14187;SDS011;7175;51.978;5.330;2023-05-19T04:01:21;117.40;;;110.70;;
14187;SDS011;7175;51.978;5.330;2023-05-19T04:03:50;117.50;;;110.80;;
14187;SDS011;7175;51.978;5.330;2023-05-19T04:06:18;117.80;;;111.10;;
14187;SDS011;7175;51.978;5.330;2023-05-19T04:08:47;117.00;;;110.30;;
14187;SDS011;7175;51.978;5.330;2023-05-19T04:11:15;115.90;;;109.20;;
14187;SDS011;7175;51.978;5.330;2023-05-19T04:13:45;113.80;;;107.20;;
14187;SDS011;7175;51.978;5.330;2023-05-19T04:16:13;117.97;;;111.00;;
14187;SDS011;7175;51.978;5.330;2023-05-19T04:18:41;115.47;;;108.67;;
14187;SDS011;7175;51.978;5.330;2023-05-19T04:21:13;113.80;;;107.10;;
14187;SDS011;7175;51.978;5.330;2023-05-19T04:23:41;114.70;;;107.90;;
14187;SDS011;7175;51.978;5.330;2023-05-19T04:26:09;111.43;;;104.83;;
14187;SDS011;7175;51.978;5.330;2023-05-19T04:28:37;113.87;;;107.17;;
14187;SDS011;7175;51.978;5.330;2023-05-19T04:31:07;112.40;;;105.70;;
14187;SDS011;7175;51.978;5.330;2023-05-19T04:33:36;111.90;;;105.40;;
14187;SDS011;7175;51.978;5.330;2023-05-19T04:36:04;112.93;;;106.33;;
14187;SDS011;7175;51.978;5.330;2023-05-19T04:38:39;115.67;;;108.53;;
14187;SDS011;7175;51.978;5.330;2023-05-19T04:41:07;115.70;;;109.10;;
14187;SDS011;7175;51.978;5.330;2023-05-19T04:43:36;112.67;;;106.13;;
14187;SDS011;7175;51.978;5.330;2023-05-19T04:46:07;112.30;;;105.80;;
14187;SDS011;7175;51.978;5.330;2023-05-19T04:48:39;115.97;;;109.27;;
14187;SDS011;7175;51.978;5.330;2023-05-19T04:51:08;113.47;;;106.80;;
14187;SDS011;7175;51.978;5.330;2023-05-19T04:53:41;116.03;;;109.23;;
14187;SDS011;7175;51.978;5.330;2023-05-19T04:56:09;115.17;;;108.47;;
14187;SDS011;7175;51.978;5.330;2023-05-19T04:58:40;115.37;;;108.57;;
14187;SDS011;7175;51.978;5.330;2023-05-19T05:01:10;113.93;;;107.23;;
14187;SDS011;7175;51.978;5.330;2023-05-19T05:03:39;112.20;;;105.50;;
14187;SDS011;7175;51.978;5.330;2023-05-19T05:06:07;114.93;;;108.10;;
14187;SDS011;7175;51.978;5.330;2023-05-19T05:08:35;114.83;;;108.07;;
14187;SDS011;7175;51.978;5.330;2023-05-19T05:11:07;110.07;;;103.67;;
14187;SDS011;7175;51.978;5.330;2023-05-19T05:13:36;110.57;;;104.17;;
14187;SDS011;7175;51.978;5.330;2023-05-19T05:16:05;105.47;;;99.27;;
14187;SDS011;7175;51.978;5.330;2023-05-19T05:18:34;109.03;;;102.73;;
14187;SDS011;7175;51.978;5.330;2023-05-19T05:21:04;101.33;;;95.53;;
14187;SDS011;7175;51.978;5.330;2023-05-19T05:23:33;101.20;;;95.40;;
14187;SDS011;7175;51.978;5.330;2023-05-19T05:26:02;99.93;;;94.23;;
14187;SDS011;7175;51.978;5.330;2023-05-19T05:28:43;99.67;;;93.97;;
14187;SDS011;7175;51.978;5.330;2023-05-19T05:31:11;89.93;;;84.73;;
14187;SDS011;7175;51.978;5.330;2023-05-19T05:33:39;88.40;;;83.27;;
14187;SDS011;7175;51.978;5.330;2023-05-19T05:36:07;85.23;;;80.33;;
14187;SDS011;7175;51.978;5.330;2023-05-19T05:38:35;80.80;;;76.13;;
14187;SDS011;7175;51.978;5.330;2023-05-19T05:41:03;73.57;;;69.27;;
14187;SDS011;7175;51.978;5.330;2023-05-19T05:43:33;76.80;;;72.30;;
14187;SDS011;7175;51.978;5.330;2023-05-19T05:46:01;66.00;;;62.10;;
14187;SDS011;7175;51.978;5.330;2023-05-19T05:48:29;61.93;;;58.23;;
14187;SDS011;7175;51.978;5.330;2023-05-19T05:50:58;55.90;;;52.50;;
14187;SDS011;7175;51.978;5.330;2023-05-19T05:53:27;51.70;;;48.40;;
14187;SDS011;7175;51.978;5.330;2023-05-19T05:55:57;53.70;;;50.40;;
14187;SDS011;7175;51.978;5.330;2023-05-19T05:58:26;51.13;;;47.93;;
14187;SDS011;7175;51.978;5.330;2023-05-19T06:00:56;41.10;;;38.40;;
14187;SDS011;7175;51.978;5.330;2023-05-19T06:03:25;38.30;;;35.70;;
14187;SDS011;7175;51.978;5.330;2023-05-19T06:05:53;34.87;;;32.47;;
14187;SDS011;7175;51.978;5.330;2023-05-19T06:08:21;38.50;;;35.80;;
14187;SDS011;7175;51.978;5.330;2023-05-19T06:10:49;38.17;;;35.57;;
14187;SDS011;7175;51.978;5.330;2023-05-19T06:13:17;34.57;;;32.07;;
14187;SDS011;7175;51.978;5.330;2023-05-19T06:15:49;31.93;;;29.63;;
14187;SDS011;7175;51.978;5.330;2023-05-19T06:18:19;26.53;;;24.53;;
14187;SDS011;7175;51.978;5.330;2023-05-19T06:20:47;27.07;;;25.07;;
14187;SDS011;7175;51.978;5.330;2023-05-19T06:23:15;25.53;;;23.53;;
14187;SDS011;7175;51.978;5.330;2023-05-19T06:25:43;24.40;;;22.50;;
14187;SDS011;7175;51.978;5.330;2023-05-19T06:28:11;24.30;;;22.40;;
14187;SDS011;7175;51.978;5.330;2023-05-19T06:30:39;23.90;;;22.00;;
14187;SDS011;7175;51.978;5.330;2023-05-19T06:33:08;22.87;;;21.07;;
14187;SDS011;7175;51.978;5.330;2023-05-19T06:35:37;22.10;;;20.40;;
14187;SDS011;7175;51.978;5.330;2023-05-19T06:38:05;21.90;;;20.20;;
14187;SDS011;7175;51.978;5.330;2023-05-19T06:40:34;21.30;;;19.70;;
14187;SDS011;7175;51.978;5.330;2023-05-19T06:43:02;21.80;;;20.10;;
14187;SDS011;7175;51.978;5.330;2023-05-19T06:45:31;20.77;;;19.17;;
14187;SDS011;7175;51.978;5.330;2023-05-19T06:47:59;21.33;;;19.73;;
14187;SDS011;7175;51.978;5.330;2023-05-19T06:50:27;20.13;;;18.60;;
14187;SDS011;7175;51.978;5.330;2023-05-19T06:52:57;20.57;;;19.07;;
14187;SDS011;7175;51.978;5.330;2023-05-19T06:55:25;20.97;;;19.37;;
14187;SDS011;7175;51.978;5.330;2023-05-19T06:57:53;20.70;;;19.10;;
14187;SDS011;7175;51.978;5.330;2023-05-19T07:00:21;20.13;;;18.63;;
14187;SDS011;7175;51.978;5.330;2023-05-19T07:02:49;20.03;;;18.53;;
14187;SDS011;7175;51.978;5.330;2023-05-19T07:05:18;19.90;;;18.40;;
14187;SDS011;7175;51.978;5.330;2023-05-19T07:07:46;19.87;;;18.37;;
14187;SDS011;7175;51.978;5.330;2023-05-19T07:10:16;21.70;;;19.53;;
14187;SDS011;7175;51.978;5.330;2023-05-19T07:12:44;19.47;;;17.97;;
14187;SDS011;7175;51.978;5.330;2023-05-19T07:15:12;18.50;;;17.10;;
14187;SDS011;7175;51.978;5.330;2023-05-19T07:17:40;19.20;;;17.80;;
14187;SDS011;7175;51.978;5.330;2023-05-19T07:20:09;19.83;;;18.27;;
14187;SDS011;7175;51.978;5.330;2023-05-19T07:22:38;19.57;;;18.17;;
14187;SDS011;7175;51.978;5.330;2023-05-19T07:25:06;20.00;;;18.50;;
14187;SDS011;7175;51.978;5.330;2023-05-19T07:27:36;19.53;;;18.13;;
14187;SDS011;7175;51.978;5.330;2023-05-19T07:30:05;19.57;;;18.17;;
14187;SDS011;7175;51.978;5.330;2023-05-19T07:32:34;19.80;;;18.40;;
14187;SDS011;7175;51.978;5.330;2023-05-19T07:35:02;19.53;;;18.03;;
14187;SDS011;7175;51.978;5.330;2023-05-19T07:37:32;19.70;;;18.20;;
14187;SDS011;7175;51.978;5.330;2023-05-19T07:40:00;19.60;;;18.10;;
14187;SDS011;7175;51.978;5.330;2023-05-19T07:42:28;19.23;;;17.83;;
14187;SDS011;7175;51.978;5.330;2023-05-19T07:44:58;19.77;;;18.27;;
14187;SDS011;7175;51.978;5.330;2023-05-19T07:47:26;21.03;;;19.43;;
14187;SDS011;7175;51.978;5.330;2023-05-19T07:49:55;19.37;;;17.97;;
14187;SDS011;7175;51.978;5.330;2023-05-19T07:52:23;19.30;;;17.90;;
14187;SDS011;7175;51.978;5.330;2023-05-19T07:54:51;19.20;;;17.80;;
14187;SDS011;7175;51.978;5.330;2023-05-19T07:57:19;20.00;;;18.53;;
14187;SDS011;7175;51.978;5.330;2023-05-19T07:59:48;19.20;;;17.80;;
14187;SDS011;7175;51.978;5.330;2023-05-19T08:02:17;19.70;;;18.30;;
14187;SDS011;7175;51.978;5.330;2023-05-19T08:04:46;19.40;;;18.00;;
14187;SDS011;7175;51.978;5.330;2023-05-19T08:07:15;19.20;;;17.80;;
14187;SDS011;7175;51.978;5.330;2023-05-19T08:09:44;19.10;;;17.70;;
14187;SDS011;7175;51.978;5.330;2023-05-19T08:12:13;19.17;;;17.77;;
14187;SDS011;7175;51.978;5.330;2023-05-19T08:14:42;19.60;;;18.10;;
14187;SDS011;7175;51.978;5.330;2023-05-19T08:17:11;19.80;;;18.30;;
14187;SDS011;7175;51.978;5.330;2023-05-19T08:19:42;19.73;;;18.23;;
14187;SDS011;7175;51.978;5.330;2023-05-19T08:22:11;19.50;;;18.00;;
14187;SDS011;7175;51.978;5.330;2023-05-19T08:24:40;19.27;;;17.77;;
14187;SDS011;7175;51.978;5.330;2023-05-19T08:27:10;19.50;;;18.00;;
14187;SDS011;7175;51.978;5.330;2023-05-19T08:29:39;19.77;;;18.27;;
14187;SDS011;7175;51.978;5.330;2023-05-19T08:32:08;19.90;;;18.40;;
14187;SDS011;7175;51.978;5.330;2023-05-19T08:34:38;20.07;;;18.50;;
14187;SDS011;7175;51.978;5.330;2023-05-19T08:37:09;19.90;;;18.40;;
14187;SDS011;7175;51.978;5.330;2023-05-19T08:39:38;19.73;;;18.23;;
14187;SDS011;7175;51.978;5.330;2023-05-19T08:42:07;21.53;;;19.80;;
14187;SDS011;7175;51.978;5.330;2023-05-19T08:44:37;19.60;;;18.13;;
14187;SDS011;7175;51.978;5.330;2023-05-19T08:47:07;19.63;;;18.13;;
14187;SDS011;7175;51.978;5.330;2023-05-19T08:49:42;19.90;;;18.40;;
14187;SDS011;7175;51.978;5.330;2023-05-19T08:52:18;19.83;;;18.33;;
14187;SDS011;7175;51.978;5.330;2023-05-19T08:55:03;18.67;;;17.27;;
14187;SDS011;7175;51.978;5.330;2023-05-19T08:57:36;18.47;;;17.07;;
14187;SDS011;7175;51.978;5.330;2023-05-19T09:00:06;18.70;;;17.30;;
14187;SDS011;7175;51.978;5.330;2023-05-19T09:02:37;18.07;;;16.77;;
14187;SDS011;7175;51.978;5.330;2023-05-19T09:05:25;17.97;;;16.67;;
14187;SDS011;7175;51.978;5.330;2023-05-19T09:07:56;18.17;;;16.87;;
14187;SDS011;7175;51.978;5.330;2023-05-19T09:10:24;17.97;;;16.67;;
14187;SDS011;7175;51.978;5.330;2023-05-19T09:12:54;18.10;;;16.80;;
14187;SDS011;7175;51.978;5.330;2023-05-19T09:15:24;20.63;;;17.67;;
14187;SDS011;7175;51.978;5.330;2023-05-19T09:18:02;17.70;;;16.40;;
14187;SDS011;7175;51.978;5.330;2023-05-19T09:20:36;17.93;;;16.63;;
14187;SDS011;7175;51.978;5.330;2023-05-19T09:23:11;18.00;;;16.70;;
14187;SDS011;7175;51.978;5.330;2023-05-19T09:25:48;17.50;;;16.20;;
14187;SDS011;7175;51.978;5.330;2023-05-19T09:28:23;17.77;;;16.47;;
14187;SDS011;7175;51.978;5.330;2023-05-19T09:31:02;17.87;;;16.57;;
14187;SDS011;7175;51.978;5.330;2023-05-19T09:33:32;18.40;;;17.10;;
14187;SDS011;7175;51.978;5.330;2023-05-19T09:36:02;18.80;;;17.50;;
14187;SDS011;7175;51.978;5.330;2023-05-19T09:38:34;28.63;;;17.40;;
14187;SDS011;7175;51.978;5.330;2023-05-19T09:41:03;18.07;;;16.77;;
14187;SDS011;7175;51.978;5.330;2023-05-19T09:43:33;17.87;;;16.57;;
14187;SDS011;7175;51.978;5.330;2023-05-19T09:46:02;19.77;;;18.27;;
14187;SDS011;7175;51.978;5.330;2023-05-19T09:48:31;18.80;;;17.40;;
14187;SDS011;7175;51.978;5.330;2023-05-19T09:51:00;18.60;;;17.20;;
14187;SDS011;7175;51.978;5.330;2023-05-19T09:53:29;18.37;;;16.97;;
14187;SDS011;7175;51.978;5.330;2023-05-19T09:55:59;17.73;;;16.43;;
14187;SDS011;7175;51.978;5.330;2023-05-19T09:58:30;18.30;;;16.90;;
14187;SDS011;7175;51.978;5.330;2023-05-19T10:01:01;18.33;;;16.93;;
14187;SDS011;7175;51.978;5.330;2023-05-19T10:03:31;17.83;;;16.47;;
14187;SDS011;7175;51.978;5.330;2023-05-19T10:06:00;18.13;;;16.73;;
14187;SDS011;7175;51.978;5.330;2023-05-19T10:08:32;18.77;;;17.37;;
14187;SDS011;7175;51.978;5.330;2023-05-19T10:11:02;18.60;;;17.20;;
14187;SDS011;7175;51.978;5.330;2023-05-19T10:13:32;17.60;;;16.30;;
14187;SDS011;7175;51.978;5.330;2023-05-19T10:16:04;17.60;;;16.30;;
14187;SDS011;7175;51.978;5.330;2023-05-19T10:18:33;17.47;;;16.17;;
14187;SDS011;7175;51.978;5.330;2023-05-19T10:21:05;18.20;;;16.80;;
14187;SDS011;7175;51.978;5.330;2023-05-19T10:23:34;17.60;;;16.30;;
14187;SDS011;7175;51.978;5.330;2023-05-19T10:26:04;17.70;;;16.40;;
14187;SDS011;7175;51.978;5.330;2023-05-19T10:28:34;17.37;;;16.07;;
14187;SDS011;7175;51.978;5.330;2023-05-19T10:31:06;17.60;;;16.30;;
14187;SDS011;7175;51.978;5.330;2023-05-19T10:33:40;17.70;;;16.40;;
14187;SDS011;7175;51.978;5.330;2023-05-19T10:36:24;18.57;;;16.83;;
14187;SDS011;7175;51.978;5.330;2023-05-19T10:39:04;17.43;;;16.13;;
14187;SDS011;7175;51.978;5.330;2023-05-19T10:41:38;17.90;;;16.50;;
14187;SDS011;7175;51.978;5.330;2023-05-19T10:44:15;18.10;;;16.70;;
14187;SDS011;7175;51.978;5.330;2023-05-19T10:46:54;17.60;;;16.30;;
14187;SDS011;7175;51.978;5.330;2023-05-19T10:49:23;17.33;;;16.03;;
14187;SDS011;7175;51.978;5.330;2023-05-19T10:51:51;17.50;;;16.20;;
14187;SDS011;7175;51.978;5.330;2023-05-19T10:54:41;17.83;;;16.53;;
14187;SDS011;7175;51.978;5.330;2023-05-19T10:57:17;17.63;;;16.33;;
14187;SDS011;7175;51.978;5.330;2023-05-19T10:59:51;18.10;;;16.80;;
14187;SDS011;7175;51.978;5.330;2023-05-19T11:05:13;17.93;;;16.63;;
14187;SDS011;7175;51.978;5.330;2023-05-19T11:07:55;18.50;;;17.10;;
14187;SDS011;7175;51.978;5.330;2023-05-19T11:10:27;17.57;;;16.27;;
14187;SDS011;7175;51.978;5.330;2023-05-19T11:12:57;18.23;;;16.93;;
14187;SDS011;7175;51.978;5.330;2023-05-19T11:15:26;17.70;;;16.40;;
14187;SDS011;7175;51.978;5.330;2023-05-19T11:17:55;17.80;;;16.50;;
14187;SDS011;7175;51.978;5.330;2023-05-19T11:20:24;18.30;;;16.90;;
14187;SDS011;7175;51.978;5.330;2023-05-19T11:23:00;18.00;;;16.60;;
14187;SDS011;7175;51.978;5.330;2023-05-19T11:25:42;17.77;;;16.47;;
14187;SDS011;7175;51.978;5.330;2023-05-19T11:28:15;18.37;;;16.97;;
14187;SDS011;7175;51.978;5.330;2023-05-19T11:30:52;18.10;;;16.70;;
14187;SDS011;7175;51.978;5.330;2023-05-19T11:33:23;18.30;;;16.90;;
14187;SDS011;7175;51.978;5.330;2023-05-19T11:35:53;18.07;;;16.67;;
14187;SDS011;7175;51.978;5.330;2023-05-19T11:38:24;17.90;;;16.50;;
14187;SDS011;7175;51.978;5.330;2023-05-19T11:40:54;17.53;;;16.23;;
14187;SDS011;7175;51.978;5.330;2023-05-19T11:43:23;22.70;;;16.80;;
14187;SDS011;7175;51.978;5.330;2023-05-19T11:45:52;17.73;;;16.43;;
14187;SDS011;7175;51.978;5.330;2023-05-19T11:48:21;17.63;;;16.33;;
14187;SDS011;7175;51.978;5.330;2023-05-19T11:50:50;17.87;;;16.57;;
14187;SDS011;7175;51.978;5.330;2023-05-19T11:53:19;18.00;;;16.70;;
14187;SDS011;7175;51.978;5.330;2023-05-19T11:55:47;17.80;;;16.50;;
14187;SDS011;7175;51.978;5.330;2023-05-19T11:58:17;18.13;;;16.83;;
14187;SDS011;7175;51.978;5.330;2023-05-19T12:00:52;18.07;;;16.77;;
14187;SDS011;7175;51.978;5.330;2023-05-19T12:03:21;18.53;;;17.17;;
14187;SDS011;7175;51.978;5.330;2023-05-19T12:05:53;18.30;;;16.90;;
14187;SDS011;7175;51.978;5.330;2023-05-19T12:08:22;18.17;;;16.87;;
14187;SDS011;7175;51.978;5.330;2023-05-19T12:10:51;17.90;;;16.60;;
14187;SDS011;7175;51.978;5.330;2023-05-19T12:13:19;18.20;;;16.80;;
14187;SDS011;7175;51.978;5.330;2023-05-19T12:15:49;17.70;;;16.40;;
14187;SDS011;7175;51.978;5.330;2023-05-19T12:18:19;17.97;;;16.67;;
14187;SDS011;7175;51.978;5.330;2023-05-19T12:20:48;17.77;;;16.47;;
14187;SDS011;7175;51.978;5.330;2023-05-19T12:23:16;17.63;;;16.33;;
14187;SDS011;7175;51.978;5.330;2023-05-19T12:25:45;18.40;;;17.00;;
14187;SDS011;7175;51.978;5.330;2023-05-19T12:28:14;17.87;;;16.53;;
14187;SDS011;7175;51.978;5.330;2023-05-19T12:30:45;19.40;;;17.90;;
14187;SDS011;7175;51.978;5.330;2023-05-19T12:33:14;17.83;;;16.53;;
14187;SDS011;7175;51.978;5.330;2023-05-19T12:35:44;19.33;;;17.83;;
14187;SDS011;7175;51.978;5.330;2023-05-19T12:38:14;19.60;;;18.10;;
14187;SDS011;7175;51.978;5.330;2023-05-19T12:40:43;18.93;;;17.53;;
14187;SDS011;7175;51.978;5.330;2023-05-19T12:43:18;19.60;;;18.10;;
14187;SDS011;7175;51.978;5.330;2023-05-19T12:45:47;20.20;;;18.60;;
14187;SDS011;7175;51.978;5.330;2023-05-19T12:48:16;20.10;;;18.50;;
14187;SDS011;7175;51.978;5.330;2023-05-19T12:50:49;19.90;;;18.30;;
14187;SDS011;7175;51.978;5.330;2023-05-19T12:53:19;19.60;;;18.00;;
14187;SDS011;7175;51.978;5.330;2023-05-19T12:55:50;20.33;;;18.53;;
14187;SDS011;7175;51.978;5.330;2023-05-19T12:58:19;19.10;;;17.60;;
14187;SDS011;7175;51.978;5.330;2023-05-19T13:00:48;18.87;;;17.37;;
14187;SDS011;7175;51.978;5.330;2023-05-19T13:03:18;19.17;;;17.67;;
14187;SDS011;7175;51.978;5.330;2023-05-19T13:05:49;19.03;;;17.53;;
14187;SDS011;7175;51.978;5.330;2023-05-19T13:08:18;18.97;;;17.47;;
14187;SDS011;7175;51.978;5.330;2023-05-19T13:10:49;18.60;;;17.20;;
14187;SDS011;7175;51.978;5.330;2023-05-19T13:13:17;18.70;;;17.10;;
14187;SDS011;7175;51.978;5.330;2023-05-19T13:15:46;18.40;;;17.00;;
14187;SDS011;7175;51.978;5.330;2023-05-19T13:18:14;18.57;;;17.17;;
14187;SDS011;7175;51.978;5.330;2023-05-19T13:20:44;18.80;;;17.40;;
14187;SDS011;7175;51.978;5.330;2023-05-19T13:23:17;18.40;;;17.00;;
14187;SDS011;7175;51.978;5.330;2023-05-19T13:25:46;18.50;;;17.10;;
14187;SDS011;7175;51.978;5.330;2023-05-19T13:28:16;18.70;;;17.30;;
14187;SDS011;7175;51.978;5.330;2023-05-19T13:30:44;19.50;;;18.00;;
14187;SDS011;7175;51.978;5.330;2023-05-19T13:33:12;19.13;;;17.73;;
14187;SDS011;7175;51.978;5.330;2023-05-19T13:35:41;18.80;;;17.40;;
14187;SDS011;7175;51.978;5.330;2023-05-19T13:38:09;18.80;;;17.40;;
14187;SDS011;7175;51.978;5.330;2023-05-19T13:40:38;19.00;;;17.60;;
14187;SDS011;7175;51.978;5.330;2023-05-19T13:43:07;19.53;;;17.93;;
14187;SDS011;7175;51.978;5.330;2023-05-19T13:45:35;18.60;;;17.20;;
14187;SDS011;7175;51.978;5.330;2023-05-19T13:48:04;18.73;;;17.33;;
14187;SDS011;7175;51.978;5.330;2023-05-19T13:50:33;19.40;;;17.90;;
14187;SDS011;7175;51.978;5.330;2023-05-19T13:53:03;18.77;;;17.37;;
14187;SDS011;7175;51.978;5.330;2023-05-19T13:55:31;18.80;;;17.40;;
14187;SDS011;7175;51.978;5.330;2023-05-19T13:58:00;18.67;;;17.27;;
14187;SDS011;7175;51.978;5.330;2023-05-19T14:00:29;18.50;;;17.10;;
14187;SDS011;7175;51.978;5.330;2023-05-19T14:02:59;18.53;;;17.13;;
14187;SDS011;7175;51.978;5.330;2023-05-19T14:05:28;18.60;;;17.20;;
14187;SDS011;7175;51.978;5.330;2023-05-19T14:07:56;19.30;;;17.60;;
14187;SDS011;7175;51.978;5.330;2023-05-19T14:10:26;18.60;;;17.20;;
14187;SDS011;7175;51.978;5.330;2023-05-19T14:12:54;18.80;;;17.30;;
14187;SDS011;7175;51.978;5.330;2023-05-19T14:15:29;18.53;;;17.13;;
14187;SDS011;7175;51.978;5.330;2023-05-19T14:17:59;19.43;;;17.80;;
14187;SDS011;7175;51.978;5.330;2023-05-19T14:20:30;18.60;;;17.10;;
14187;SDS011;7175;51.978;5.330;2023-05-19T14:22:58;18.67;;;17.17;;
14187;SDS011;7175;51.978;5.330;2023-05-19T14:25:27;18.63;;;17.13;;
14187;SDS011;7175;51.978;5.330;2023-05-19T14:27:55;19.20;;;17.70;;
14187;SDS011;7175;51.978;5.330;2023-05-19T14:30:23;18.90;;;17.40;;
14187;SDS011;7175;51.978;5.330;2023-05-19T14:32:53;18.57;;;17.13;;
14187;SDS011;7175;51.978;5.330;2023-05-19T14:35:22;18.23;;;16.83;;
14187;SDS011;7175;51.978;5.330;2023-05-19T14:37:50;18.60;;;17.20;;
14187;SDS011;7175;51.978;5.330;2023-05-19T14:40:18;18.30;;;16.90;;
14187;SDS011;7175;51.978;5.330;2023-05-19T14:42:46;18.80;;;17.40;;
14187;SDS011;7175;51.978;5.330;2023-05-19T14:45:15;18.90;;;17.40;;
14187;SDS011;7175;51.978;5.330;2023-05-19T14:47:43;18.03;;;16.63;;
14187;SDS011;7175;51.978;5.330;2023-05-19T14:50:14;18.50;;;17.10;;